TimePST,TemperatureF,Dew PointF,Humidity,Sea Level PressureIn,VisibilityMPH,Wind Direction,Wind SpeedMPH,Gust SpeedMPH,PrecipitationIn,Events,Conditions,WindDirDegrees,DateUTC
12:53 AM,39.0,32.0,76,30.14,3.0,Calm,Calm,-,N/A,,Haze,0,2014-01-20 08:53:00
1:53 AM,37.0,30.0,76,30.14,3.0,Calm,Calm,-,N/A,,Haze,0,2014-01-20 09:53:00
2:05 AM,36.0,28.9,76,30.14,2.5,Calm,Calm,-,N/A,,Haze,0,2014-01-20 10:05:00
2:18 AM,36.0,30.0,79,30.15,3.0,Calm,Calm,-,N/A,,Haze,0,2014-01-20 10:18:00
2:25 AM,35.1,30.0,82,30.15,2.5,Calm,Calm,-,N/A,,Haze,0,2014-01-20 10:25:00
2:36 AM,36.0,28.9,76,30.15,3.0,Calm,Calm,-,N/A,,Haze,0,2014-01-20 10:36:00
2:53 AM,37.0,28.0,70,30.16,5.0,ENE,3.5,-,N/A,,Haze,70,2014-01-20 10:53:00
3:53 AM,34.0,27.0,75,30.16,5.0,Calm,Calm,-,N/A,,Haze,0,2014-01-20 11:53:00
4:53 AM,32.0,26.1,79,30.17,4.0,SSE,3.5,-,N/A,,Haze,160,2014-01-20 12:53:00
5:53 AM,34.0,25.0,70,30.17,8.0,Calm,Calm,-,N/A,,Clear,0,2014-01-20 13:53:00
6:53 AM,35.1,24.1,64,30.18,10.0,East,3.5,-,N/A,,Clear,80,2014-01-20 14:53:00
7:53 AM,35.1,24.1,64,30.19,7.0,Calm,Calm,-,N/A,,Clear,0,2014-01-20 15:53:00
8:53 AM,44.1,26.1,49,30.21,8.0,East,3.5,-,N/A,,Clear,100,2014-01-20 16:53:00
9:30 AM,48.0,33.1,56,30.23,2.5,ESE,4.6,-,N/A,,Haze,120,2014-01-20 17:30:00
9:53 AM,50.0,35.1,57,30.24,2.0,ESE,4.6,-,N/A,,Haze,120,2014-01-20 17:53:00
10:53 AM,55.9,36.0,47,30.22,2.5,East,4.6,-,N/A,,Haze,80,2014-01-20 18:53:00
11:26 AM,57.9,35.1,42,30.21,3.0,Calm,Calm,-,N/A,,Haze,0,2014-01-20 19:26:00
11:53 AM,60.1,35.1,39,30.20,3.0,Calm,Calm,-,N/A,,Haze,0,2014-01-20 19:53:00
12:53 PM,63.0,35.1,35,30.17,3.0,Variable,3.5,-,N/A,,Haze,0,2014-01-20 20:53:00
1:53 PM,66.0,33.1,29,30.16,4.0,Calm,Calm,-,N/A,,Haze,0,2014-01-20 21:53:00
2:53 PM,68.0,33.1,27,30.17,3.0,Calm,Calm,-,N/A,,Haze,0,2014-01-20 22:53:00
3:53 PM,69.1,30.9,24,30.17,4.0,Calm,Calm,-,N/A,,Haze,0,2014-01-20 23:53:00
4:53 PM,64.9,30.9,28,30.17,4.0,Calm,Calm,-,N/A,,Haze,0,2014-01-21 00:53:00
5:53 PM,54.0,34.0,47,30.18,6.0,West,6.9,-,N/A,,Haze,260,2014-01-21 01:53:00
6:53 PM,50.0,36.0,59,30.19,6.0,Calm,Calm,-,N/A,,Haze,0,2014-01-21 02:53:00
7:53 PM,46.9,35.1,63,30.20,6.0,NNW,3.5,-,N/A,,Haze,330,2014-01-21 03:53:00
8:53 PM,46.9,33.1,59,30.22,6.0,NNE,3.5,-,N/A,,Haze,30,2014-01-21 04:53:00
9:53 PM,45.0,32.0,60,30.24,5.0,ENE,5.8,-,N/A,,Haze,70,2014-01-21 05:53:00
10:53 PM,39.9,30.9,70,30.26,4.0,Calm,Calm,-,N/A,,Haze,0,2014-01-21 06:53:00
11:53 PM,41.0,30.0,65,30.26,4.0,ENE,4.6,-,N/A,,Haze,70,2014-01-21 07:53:00